Etusivu
METAR-TAF:

METAR-TAF

Lentoasemat :

Alexandroúpolin kansainvälinen lentoasema

Alexandroúpoli, Kreikka

Leveyspiiri: 40-51N, Pituuspiiri: 025-55E, korkeus merenpinnasta: 7 m

Tämänhetkinen sää

Tämä raportti tehtiin 15 minuuttia sitten, kello 17.50 UTC
Tuuli 6 kn lännestä
Lämpötila 16°C
Kosteus 77%
Ilmanpaine 1014 hPa
Näkyvyys 10 km tai enemmän
Muutamia pilviä 1800 ft:n korkeudessa, Kasvava cumulus-pilvi.
Hajanaisia pilviä 2000 ft:n korkeudessa

METAR: LGAL 291750Z 26006KT 9999 FEW018TCU SCT020 16/12 Q1014

Aika: 21:05 (18:05 UTC)

Sääennuste

Tämä raportti tehtiin 1 tunti ja 5 minuuttia sitten, kello 17.00 UTC
Ennuste voimassa 29. päivästä klo 18 UTC - 30. päivään klo 03 UTC
Tuuli 10 kn lounaasta
Näkyvyys 10 km tai enemmän
Muutamia pilviä 1800 ft:n korkeudessa, Kasvava cumulus-pilvi.
Hajanaisia pilviä 2000 ft:n korkeudessa

TAF: LGAL 291700Z 2918/3003 23010KT 9999 FEW018TCU SCT020

Säähavainnot ja -ennusteet yli 4000 lentoasemalta (METAR- ja TAF-raportit).

Käytössä olevat sääasemat on merkitty karttaan keltaisilla ja punaisilla pisteillä.

Aseta hiiri pisteen päälle nähdäksesi sääaseman nimen.

Klikkaa sitten nähdäksesi säähavainnot ja -ennusteet.

Kartan vaihtaminen: klikkaa mustalla rastilla varustettuja vihreitä pisteitä, niin voit zoomata sisään; viivalla varustettua vihreää pistettä, niin voit zoomata ulos tai vihreitä nuolia, niin pääset viereisille kartoille.


METAR-TAF: